sensor_id;sensor_type;location;lat;lon;timestamp;P1;durP1;ratioP1;P2;durP2;ratioP2
40595;SDS011;26304;48.794;9.820;2023-05-07T00:01:26;2.95;;;2.05;;
40595;SDS011;26304;48.794;9.820;2023-05-07T00:07:08;2.30;;;2.10;;
40595;SDS011;26304;48.794;9.820;2023-05-07T00:12:51;2.00;;;1.90;;
40595;SDS011;26304;48.794;9.820;2023-05-07T00:18:35;3.05;;;2.20;;
40595;SDS011;26304;48.794;9.820;2023-05-07T00:24:17;2.22;;;1.90;;
40595;SDS011;26304;48.794;9.820;2023-05-07T00:29:59;2.55;;;1.70;;
40595;SDS011;26304;48.794;9.820;2023-05-07T00:35:43;2.05;;;1.88;;
40595;SDS011;26304;48.794;9.820;2023-05-07T00:41:26;2.00;;;1.90;;
40595;SDS011;26304;48.794;9.820;2023-05-07T00:47:08;2.05;;;1.95;;
40595;SDS011;26304;48.794;9.820;2023-05-07T00:52:52;2.03;;;1.83;;
40595;SDS011;26304;48.794;9.820;2023-05-07T00:58:35;1.83;;;1.73;;
40595;SDS011;26304;48.794;9.820;2023-05-07T01:04:18;2.20;;;2.00;;
40595;SDS011;26304;48.794;9.820;2023-05-07T01:10:02;2.78;;;2.50;;
40595;SDS011;26304;48.794;9.820;2023-05-07T01:15:45;2.53;;;2.22;;
40595;SDS011;26304;48.794;9.820;2023-05-07T01:21:27;2.88;;;1.88;;
40595;SDS011;26304;48.794;9.820;2023-05-07T01:27:16;2.13;;;1.90;;
40595;SDS011;26304;48.794;9.820;2023-05-07T01:32:58;1.52;;;1.42;;
40595;SDS011;26304;48.794;9.820;2023-05-07T01:38:46;2.38;;;1.65;;
40595;SDS011;26304;48.794;9.820;2023-05-07T01:44:30;1.98;;;1.88;;
40595;SDS011;26304;48.794;9.820;2023-05-07T01:50:13;3.70;;;1.90;;
40595;SDS011;26304;48.794;9.820;2023-05-07T01:55:58;1.67;;;1.58;;
40595;SDS011;26304;48.794;9.820;2023-05-07T02:01:42;2.00;;;1.90;;
40595;SDS011;26304;48.794;9.820;2023-05-07T02:07:25;2.05;;;1.85;;
40595;SDS011;26304;48.794;9.820;2023-05-07T02:13:07;2.50;;;2.08;;
40595;SDS011;26304;48.794;9.820;2023-05-07T02:18:51;4.32;;;1.95;;
40595;SDS011;26304;48.794;9.820;2023-05-07T02:24:33;1.73;;;1.63;;
40595;SDS011;26304;48.794;9.820;2023-05-07T02:30:16;2.97;;;1.80;;
40595;SDS011;26304;48.794;9.820;2023-05-07T02:36:06;2.25;;;2.05;;
40595;SDS011;26304;48.794;9.820;2023-05-07T02:41:49;2.00;;;1.80;;
40595;SDS011;26304;48.794;9.820;2023-05-07T02:47:31;2.83;;;1.88;;
40595;SDS011;26304;48.794;9.820;2023-05-07T02:53:15;2.47;;;2.10;;
40595;SDS011;26304;48.794;9.820;2023-05-07T02:58:57;1.95;;;1.85;;
40595;SDS011;26304;48.794;9.820;2023-05-07T03:04:40;3.42;;;1.63;;
40595;SDS011;26304;48.794;9.820;2023-05-07T03:10:24;2.08;;;1.88;;
40595;SDS011;26304;48.794;9.820;2023-05-07T03:16:06;1.95;;;1.73;;
40595;SDS011;26304;48.794;9.820;2023-05-07T03:21:49;2.10;;;2.00;;
40595;SDS011;26304;48.794;9.820;2023-05-07T03:27:32;2.10;;;2.00;;
40595;SDS011;26304;48.794;9.820;2023-05-07T03:33:15;2.22;;;2.03;;
40595;SDS011;26304;48.794;9.820;2023-05-07T03:38:57;3.08;;;2.28;;
40595;SDS011;26304;48.794;9.820;2023-05-07T03:44:41;1.83;;;1.73;;
40595;SDS011;26304;48.794;9.820;2023-05-07T03:50:23;2.30;;;2.00;;
40595;SDS011;26304;48.794;9.820;2023-05-07T03:56:06;2.25;;;2.05;;
40595;SDS011;26304;48.794;9.820;2023-05-07T04:01:49;2.03;;;1.92;;
40595;SDS011;26304;48.794;9.820;2023-05-07T04:07:32;1.65;;;1.55;;
40595;SDS011;26304;48.794;9.820;2023-05-07T04:13:14;2.08;;;1.70;;
40595;SDS011;26304;48.794;9.820;2023-05-07T04:18:58;1.73;;;1.63;;
40595;SDS011;26304;48.794;9.820;2023-05-07T04:24:40;1.60;;;1.50;;
40595;SDS011;26304;48.794;9.820;2023-05-07T04:30:23;1.52;;;1.42;;
40595;SDS011;26304;48.794;9.820;2023-05-07T04:36:07;1.70;;;1.60;;
40595;SDS011;26304;48.794;9.820;2023-05-07T04:41:49;1.92;;;1.58;;
40595;SDS011;26304;48.794;9.820;2023-05-07T04:47:32;2.10;;;1.90;;
40595;SDS011;26304;48.794;9.820;2023-05-07T04:53:15;2.05;;;1.92;;
40595;SDS011;26304;48.794;9.820;2023-05-07T04:58:58;2.15;;;1.73;;
40595;SDS011;26304;48.794;9.820;2023-05-07T05:04:40;1.77;;;1.52;;
40595;SDS011;26304;48.794;9.820;2023-05-07T05:10:24;2.20;;;1.60;;
40595;SDS011;26304;48.794;9.820;2023-05-07T05:16:06;2.92;;;2.13;;
40595;SDS011;26304;48.794;9.820;2023-05-07T05:21:49;5.65;;;3.30;;
40595;SDS011;26304;48.794;9.820;2023-05-07T05:27:33;2.72;;;2.33;;
40595;SDS011;26304;48.794;9.820;2023-05-07T05:33:16;2.78;;;1.83;;
40595;SDS011;26304;48.794;9.820;2023-05-07T05:38:58;1.92;;;1.73;;
40595;SDS011;26304;48.794;9.820;2023-05-07T05:44:42;2.20;;;1.85;;
40595;SDS011;26304;48.794;9.820;2023-05-07T05:50:24;1.70;;;1.60;;
40595;SDS011;26304;48.794;9.820;2023-05-07T05:56:06;1.90;;;1.80;;
40595;SDS011;26304;48.794;9.820;2023-05-07T06:01:50;1.80;;;1.70;;
40595;SDS011;26304;48.794;9.820;2023-05-07T06:07:33;2.45;;;1.88;;
40595;SDS011;26304;48.794;9.820;2023-05-07T06:13:15;1.83;;;1.73;;
40595;SDS011;26304;48.794;9.820;2023-05-07T06:18:59;1.70;;;1.60;;
40595;SDS011;26304;48.794;9.820;2023-05-07T06:24:42;2.05;;;1.67;;
40595;SDS011;26304;48.794;9.820;2023-05-07T06:30:25;1.98;;;1.42;;
40595;SDS011;26304;48.794;9.820;2023-05-07T06:36:09;1.58;;;1.48;;
40595;SDS011;26304;48.794;9.820;2023-05-07T06:41:51;2.15;;;1.80;;
40595;SDS011;26304;48.794;9.820;2023-05-07T06:47:33;1.50;;;1.40;;
40595;SDS011;26304;48.794;9.820;2023-05-07T06:53:17;2.67;;;1.40;;
40595;SDS011;26304;48.794;9.820;2023-05-07T06:58:59;1.40;;;1.30;;
40595;SDS011;26304;48.794;9.820;2023-05-07T07:04:42;1.60;;;1.50;;
40595;SDS011;26304;48.794;9.820;2023-05-07T07:10:27;2.53;;;1.17;;
40595;SDS011;26304;48.794;9.820;2023-05-07T07:16:09;1.60;;;1.35;;
40595;SDS011;26304;48.794;9.820;2023-05-07T07:21:52;2.80;;;1.48;;
40595;SDS011;26304;48.794;9.820;2023-05-07T07:27:35;5.28;;;1.60;;
40595;SDS011;26304;48.794;9.820;2023-05-07T07:33:18;1.70;;;1.50;;
40595;SDS011;26304;48.794;9.820;2023-05-07T07:39:00;2.85;;;1.40;;
40595;SDS011;26304;48.794;9.820;2023-05-07T07:44:44;3.55;;;1.55;;
40595;SDS011;26304;48.794;9.820;2023-05-07T07:50:27;3.22;;;1.60;;
40595;SDS011;26304;48.794;9.820;2023-05-07T07:56:09;2.60;;;1.63;;
40595;SDS011;26304;48.794;9.820;2023-05-07T08:01:53;6.15;;;1.70;;
40595;SDS011;26304;48.794;9.820;2023-05-07T08:07:37;3.40;;;1.67;;
40595;SDS011;26304;48.794;9.820;2023-05-07T08:13:20;3.33;;;1.45;;
40595;SDS011;26304;48.794;9.820;2023-05-07T08:19:03;2.97;;;1.42;;
40595;SDS011;26304;48.794;9.820;2023-05-07T08:24:46;4.20;;;1.55;;
40595;SDS011;26304;48.794;9.820;2023-05-07T08:30:28;2.33;;;1.50;;
40595;SDS011;26304;48.794;9.820;2023-05-07T08:36:12;5.88;;;1.27;;
40595;SDS011;26304;48.794;9.820;2023-05-07T08:41:54;1.85;;;1.48;;
40595;SDS011;26304;48.794;9.820;2023-05-07T08:47:42;1.70;;;1.25;;
40595;SDS011;26304;48.794;9.820;2023-05-07T08:53:27;2.25;;;1.15;;
40595;SDS011;26304;48.794;9.820;2023-05-07T08:59:10;3.15;;;1.30;;
40595;SDS011;26304;48.794;9.820;2023-05-07T09:04:52;3.65;;;1.40;;
40595;SDS011;26304;48.794;9.820;2023-05-07T09:10:37;2.53;;;1.30;;
40595;SDS011;26304;48.794;9.820;2023-05-07T09:16:20;2.20;;;1.15;;
40595;SDS011;26304;48.794;9.820;2023-05-07T09:22:03;2.67;;;1.30;;
40595;SDS011;26304;48.794;9.820;2023-05-07T09:27:49;2.55;;;1.45;;
40595;SDS011;26304;48.794;9.820;2023-05-07T09:33:32;2.10;;;1.17;;
40595;SDS011;26304;48.794;9.820;2023-05-07T09:39:15;1.95;;;1.15;;
40595;SDS011;26304;48.794;9.820;2023-05-07T09:45:00;1.45;;;1.25;;
40595;SDS011;26304;48.794;9.820;2023-05-07T09:50:44;1.52;;;1.02;;
40595;SDS011;26304;48.794;9.820;2023-05-07T09:56:31;1.50;;;1.17;;
40595;SDS011;26304;48.794;9.820;2023-05-07T10:02:15;1.50;;;1.38;;
40595;SDS011;26304;48.794;9.820;2023-05-07T10:07:59;2.67;;;1.35;;
40595;SDS011;26304;48.794;9.820;2023-05-07T10:13:43;3.53;;;1.20;;
40595;SDS011;26304;48.794;9.820;2023-05-07T10:19:26;1.20;;;1.08;;
40595;SDS011;26304;48.794;9.820;2023-05-07T10:25:14;2.85;;;1.27;;
40595;SDS011;26304;48.794;9.820;2023-05-07T10:31:01;1.10;;;1.00;;
40595;SDS011;26304;48.794;9.820;2023-05-07T10:36:55;1.90;;;1.00;;
40595;SDS011;26304;48.794;9.820;2023-05-07T10:42:38;2.80;;;1.42;;
40595;SDS011;26304;48.794;9.820;2023-05-07T10:48:21;0.90;;;0.90;;
40595;SDS011;26304;48.794;9.820;2023-05-07T10:54:20;3.33;;;1.10;;
40595;SDS011;26304;48.794;9.820;2023-05-07T11:00:40;1.42;;;1.20;;
40595;SDS011;26304;48.794;9.820;2023-05-07T11:06:25;3.35;;;1.00;;
40595;SDS011;26304;48.794;9.820;2023-05-07T11:12:08;1.45;;;0.90;;
40595;SDS011;26304;48.794;9.820;2023-05-07T11:17:55;1.10;;;1.00;;
40595;SDS011;26304;48.794;9.820;2023-05-07T11:23:54;1.85;;;1.33;;
40595;SDS011;26304;48.794;9.820;2023-05-07T11:29:39;1.35;;;0.77;;
40595;SDS011;26304;48.794;9.820;2023-05-07T11:35:23;0.95;;;0.90;;
40595;SDS011;26304;48.794;9.820;2023-05-07T11:41:06;1.10;;;1.00;;
40595;SDS011;26304;48.794;9.820;2023-05-07T11:46:49;1.40;;;1.20;;
40595;SDS011;26304;48.794;9.820;2023-05-07T11:52:33;2.22;;;1.30;;
40595;SDS011;26304;48.794;9.820;2023-05-07T11:58:21;1.05;;;0.95;;
40595;SDS011;26304;48.794;9.820;2023-05-07T12:04:06;0.85;;;0.80;;
40595;SDS011;26304;48.794;9.820;2023-05-07T12:09:50;0.90;;;0.90;;
40595;SDS011;26304;48.794;9.820;2023-05-07T12:15:34;2.28;;;1.10;;
40595;SDS011;26304;48.794;9.820;2023-05-07T12:21:17;3.78;;;1.35;;
40595;SDS011;26304;48.794;9.820;2023-05-07T12:27:01;1.80;;;1.08;;
40595;SDS011;26304;48.794;9.820;2023-05-07T12:32:44;3.25;;;1.20;;
40595;SDS011;26304;48.794;9.820;2023-05-07T12:38:27;3.72;;;1.10;;
40595;SDS011;26304;48.794;9.820;2023-05-07T12:44:18;1.33;;;1.23;;
40595;SDS011;26304;48.794;9.820;2023-05-07T12:50:00;1.90;;;0.93;;
40595;SDS011;26304;48.794;9.820;2023-05-07T12:55:43;1.17;;;1.10;;
40595;SDS011;26304;48.794;9.820;2023-05-07T13:01:30;1.90;;;1.02;;
40595;SDS011;26304;48.794;9.820;2023-05-07T13:07:13;3.13;;;0.98;;
40595;SDS011;26304;48.794;9.820;2023-05-07T13:12:55;1.70;;;1.23;;
40595;SDS011;26304;48.794;9.820;2023-05-07T13:18:39;1.63;;;1.20;;
40595;SDS011;26304;48.794;9.820;2023-05-07T13:24:24;2.50;;;1.15;;
40595;SDS011;26304;48.794;9.820;2023-05-07T13:30:06;2.05;;;1.20;;
40595;SDS011;26304;48.794;9.820;2023-05-07T13:35:51;3.80;;;1.30;;
40595;SDS011;26304;48.794;9.820;2023-05-07T13:41:33;3.25;;;1.10;;
40595;SDS011;26304;48.794;9.820;2023-05-07T13:47:16;3.97;;;1.42;;
40595;SDS011;26304;48.794;9.820;2023-05-07T13:52:59;2.58;;;1.08;;
40595;SDS011;26304;48.794;9.820;2023-05-07T13:58:42;5.20;;;1.50;;
40595;SDS011;26304;48.794;9.820;2023-05-07T14:04:24;3.53;;;1.27;;
40595;SDS011;26304;48.794;9.820;2023-05-07T14:10:09;1.92;;;1.27;;
40595;SDS011;26304;48.794;9.820;2023-05-07T14:15:52;3.30;;;1.30;;
40595;SDS011;26304;48.794;9.820;2023-05-07T14:21:34;1.65;;;1.35;;
40595;SDS011;26304;48.794;9.820;2023-05-07T14:27:18;2.65;;;1.30;;
40595;SDS011;26304;48.794;9.820;2023-05-07T14:33:00;1.50;;;1.13;;
40595;SDS011;26304;48.794;9.820;2023-05-07T14:38:43;3.17;;;1.58;;
40595;SDS011;26304;48.794;9.820;2023-05-07T14:44:27;3.63;;;1.25;;
40595;SDS011;26304;48.794;9.820;2023-05-07T14:50:09;1.35;;;1.10;;
40595;SDS011;26304;48.794;9.820;2023-05-07T14:55:52;1.20;;;0.95;;
40595;SDS011;26304;48.794;9.820;2023-05-07T15:01:36;4.22;;;1.45;;
40595;SDS011;26304;48.794;9.820;2023-05-07T15:07:18;1.13;;;1.02;;
40595;SDS011;26304;48.794;9.820;2023-05-07T15:13:01;2.10;;;1.15;;
40595;SDS011;26304;48.794;9.820;2023-05-07T15:18:44;2.88;;;1.50;;
40595;SDS011;26304;48.794;9.820;2023-05-07T15:24:27;3.55;;;1.40;;
40595;SDS011;26304;48.794;9.820;2023-05-07T15:30:10;1.48;;;1.35;;
40595;SDS011;26304;48.794;9.820;2023-05-07T15:35:54;1.75;;;1.40;;
40595;SDS011;26304;48.794;9.820;2023-05-07T15:41:39;1.63;;;1.10;;
40595;SDS011;26304;48.794;9.820;2023-05-07T15:47:21;2.17;;;1.40;;
40595;SDS011;26304;48.794;9.820;2023-05-07T15:53:05;1.58;;;1.48;;
40595;SDS011;26304;48.794;9.820;2023-05-07T15:58:49;2.05;;;1.10;;
40595;SDS011;26304;48.794;9.820;2023-05-07T16:04:33;3.53;;;1.45;;
40595;SDS011;26304;48.794;9.820;2023-05-07T16:10:16;2.95;;;1.50;;
40595;SDS011;26304;48.794;9.820;2023-05-07T16:15:59;2.28;;;1.50;;
40595;SDS011;26304;48.794;9.820;2023-05-07T16:21:41;2.22;;;2.03;;
40595;SDS011;26304;48.794;9.820;2023-05-07T16:27:25;1.50;;;1.40;;
40595;SDS011;26304;48.794;9.820;2023-05-07T16:33:07;1.73;;;1.42;;
40595;SDS011;26304;48.794;9.820;2023-05-07T16:38:50;2.03;;;1.40;;
40595;SDS011;26304;48.794;9.820;2023-05-07T16:44:34;3.75;;;1.42;;
40595;SDS011;26304;48.794;9.820;2023-05-07T16:50:16;3.67;;;1.50;;
40595;SDS011;26304;48.794;9.820;2023-05-07T16:55:58;1.95;;;1.85;;
40595;SDS011;26304;48.794;9.820;2023-05-07T17:01:47;1.80;;;1.70;;
40595;SDS011;26304;48.794;9.820;2023-05-07T17:07:30;2.88;;;1.70;;
40595;SDS011;26304;48.794;9.820;2023-05-07T17:13:13;2.53;;;1.60;;
40595;SDS011;26304;48.794;9.820;2023-05-07T17:18:57;2.30;;;1.67;;
40595;SDS011;26304;48.794;9.820;2023-05-07T17:24:39;4.40;;;1.98;;
40595;SDS011;26304;48.794;9.820;2023-05-07T17:30:21;4.80;;;2.58;;
40595;SDS011;26304;48.794;9.820;2023-05-07T17:36:06;3.50;;;2.70;;
40595;SDS011;26304;48.794;9.820;2023-05-07T17:41:48;5.82;;;2.17;;
40595;SDS011;26304;48.794;9.820;2023-05-07T17:47:31;3.72;;;1.80;;
40595;SDS011;26304;48.794;9.820;2023-05-07T17:53:16;3.05;;;2.35;;
40595;SDS011;26304;48.794;9.820;2023-05-07T17:58:59;3.85;;;1.90;;
40595;SDS011;26304;48.794;9.820;2023-05-07T18:04:41;2.05;;;1.42;;
40595;SDS011;26304;48.794;9.820;2023-05-07T18:10:25;2.10;;;1.77;;
40595;SDS011;26304;48.794;9.820;2023-05-07T18:16:08;2.78;;;1.95;;
40595;SDS011;26304;48.794;9.820;2023-05-07T18:21:50;2.10;;;1.50;;
40595;SDS011;26304;48.794;9.820;2023-05-07T18:27:36;2.85;;;1.55;;
40595;SDS011;26304;48.794;9.820;2023-05-07T18:33:19;2.00;;;1.48;;
40595;SDS011;26304;48.794;9.820;2023-05-07T18:39:01;3.08;;;2.20;;
40595;SDS011;26304;48.794;9.820;2023-05-07T18:44:45;3.67;;;1.92;;
40595;SDS011;26304;48.794;9.820;2023-05-07T18:50:28;2.00;;;1.50;;
40595;SDS011;26304;48.794;9.820;2023-05-07T18:56:10;1.48;;;1.38;;
40595;SDS011;26304;48.794;9.820;2023-05-07T19:01:54;2.30;;;1.40;;
40595;SDS011;26304;48.794;9.820;2023-05-07T19:07:37;1.48;;;1.38;;
40595;SDS011;26304;48.794;9.820;2023-05-07T19:13:21;2.65;;;1.92;;
40595;SDS011;26304;48.794;9.820;2023-05-07T19:19:06;4.78;;;3.70;;
40595;SDS011;26304;48.794;9.820;2023-05-07T19:24:49;3.97;;;2.90;;
40595;SDS011;26304;48.794;9.820;2023-05-07T19:30:31;3.22;;;2.42;;
40595;SDS011;26304;48.794;9.820;2023-05-07T19:36:15;2.58;;;2.10;;
40595;SDS011;26304;48.794;9.820;2023-05-07T19:41:58;1.80;;;1.70;;
40595;SDS011;26304;48.794;9.820;2023-05-07T19:47:40;1.58;;;1.48;;
40595;SDS011;26304;48.794;9.820;2023-05-07T19:53:24;1.40;;;1.30;;
40595;SDS011;26304;48.794;9.820;2023-05-07T19:59:07;1.60;;;1.50;;
40595;SDS011;26304;48.794;9.820;2023-05-07T20:04:49;3.05;;;2.05;;
40595;SDS011;26304;48.794;9.820;2023-05-07T20:10:33;2.20;;;2.10;;
40595;SDS011;26304;48.794;9.820;2023-05-07T20:16:15;1.70;;;1.60;;
40595;SDS011;26304;48.794;9.820;2023-05-07T20:21:58;2.15;;;1.70;;
40595;SDS011;26304;48.794;9.820;2023-05-07T20:27:42;1.92;;;1.83;;
40595;SDS011;26304;48.794;9.820;2023-05-07T20:33:24;2.67;;;2.47;;
40595;SDS011;26304;48.794;9.820;2023-05-07T20:39:07;2.10;;;2.00;;
40595;SDS011;26304;48.794;9.820;2023-05-07T20:44:54;3.15;;;2.00;;
40595;SDS011;26304;48.794;9.820;2023-05-07T20:50:37;2.05;;;1.88;;
40595;SDS011;26304;48.794;9.820;2023-05-07T20:56:19;2.95;;;1.90;;
40595;SDS011;26304;48.794;9.820;2023-05-07T21:02:03;1.75;;;1.65;;
40595;SDS011;26304;48.794;9.820;2023-05-07T21:07:46;2.08;;;1.98;;
40595;SDS011;26304;48.794;9.820;2023-05-07T21:13:28;1.67;;;1.58;;
40595;SDS011;26304;48.794;9.820;2023-05-07T21:19:12;1.70;;;1.60;;
40595;SDS011;26304;48.794;9.820;2023-05-07T21:24:54;1.90;;;1.80;;
40595;SDS011;26304;48.794;9.820;2023-05-07T21:30:37;2.17;;;2.08;;
40595;SDS011;26304;48.794;9.820;2023-05-07T21:36:21;2.30;;;1.67;;
40595;SDS011;26304;48.794;9.820;2023-05-07T21:42:03;2.75;;;2.08;;
40595;SDS011;26304;48.794;9.820;2023-05-07T21:47:46;2.13;;;1.85;;
40595;SDS011;26304;48.794;9.820;2023-05-07T21:53:30;2.10;;;2.00;;
40595;SDS011;26304;48.794;9.820;2023-05-07T21:59:12;2.00;;;1.90;;
40595;SDS011;26304;48.794;9.820;2023-05-07T22:04:54;2.50;;;2.30;;
40595;SDS011;26304;48.794;9.820;2023-05-07T22:10:38;2.85;;;2.33;;
40595;SDS011;26304;48.794;9.820;2023-05-07T22:16:21;2.40;;;2.20;;
40595;SDS011;26304;48.794;9.820;2023-05-07T22:22:03;2.13;;;1.90;;
40595;SDS011;26304;48.794;9.820;2023-05-07T22:27:47;2.10;;;2.00;;
40595;SDS011;26304;48.794;9.820;2023-05-07T22:33:30;2.10;;;1.90;;
40595;SDS011;26304;48.794;9.820;2023-05-07T22:39:12;2.42;;;2.20;;
40595;SDS011;26304;48.794;9.820;2023-05-07T22:44:56;2.17;;;1.95;;
40595;SDS011;26304;48.794;9.820;2023-05-07T22:50:39;2.50;;;1.90;;
40595;SDS011;26304;48.794;9.820;2023-05-07T22:56:21;1.95;;;1.85;;
40595;SDS011;26304;48.794;9.820;2023-05-07T23:02:05;2.15;;;2.05;;
40595;SDS011;26304;48.794;9.820;2023-05-07T23:07:47;2.40;;;2.30;;
40595;SDS011;26304;48.794;9.820;2023-05-07T23:13:30;2.38;;;2.28;;
40595;SDS011;26304;48.794;9.820;2023-05-07T23:19:14;2.10;;;1.90;;
40595;SDS011;26304;48.794;9.820;2023-05-07T23:24:57;2.05;;;1.95;;
40595;SDS011;26304;48.794;9.820;2023-05-07T23:30:40;2.40;;;2.17;;
40595;SDS011;26304;48.794;9.820;2023-05-07T23:36:24;1.90;;;1.80;;
40595;SDS011;26304;48.794;9.820;2023-05-07T23:42:06;2.55;;;1.83;;
40595;SDS011;26304;48.794;9.820;2023-05-07T23:47:50;1.98;;;1.88;;
40595;SDS011;26304;48.794;9.820;2023-05-07T23:53:33;1.90;;;1.80;;
40595;SDS011;26304;48.794;9.820;2023-05-07T23:59:16;2.13;;;2.03;;
